sensor_id;sensor_type;location;lat;lon;timestamp;P1;durP1;ratioP1;P2;durP2;ratioP2
66089;SDS011;53113;45.602;11.904;2022-08-03T00:00:05;4.90;;;2.30;;
66089;SDS011;53113;45.602;11.904;2022-08-03T00:02:32;3.70;;;2.20;;
66089;SDS011;53113;45.602;11.904;2022-08-03T00:04:58;3.30;;;1.80;;
66089;SDS011;53113;45.602;11.904;2022-08-03T00:07:23;5.70;;;2.30;;
66089;SDS011;53113;45.602;11.904;2022-08-03T00:09:49;4.30;;;2.20;;
66089;SDS011;53113;45.602;11.904;2022-08-03T00:12:15;5.50;;;2.30;;
66089;SDS011;53113;45.602;11.904;2022-08-03T00:14:41;4.80;;;2.40;;
66089;SDS011;53113;45.602;11.904;2022-08-03T00:17:07;3.70;;;2.10;;
66089;SDS011;53113;45.602;11.904;2022-08-03T00:19:33;5.00;;;2.50;;
66089;SDS011;53113;45.602;11.904;2022-08-03T00:21:59;5.50;;;2.30;;
66089;SDS011;53113;45.602;11.904;2022-08-03T00:24:24;5.70;;;2.30;;
66089;SDS011;53113;45.602;11.904;2022-08-03T00:26:50;5.80;;;2.40;;
66089;SDS011;53113;45.602;11.904;2022-08-03T00:29:16;6.30;;;2.60;;
66089;SDS011;53113;45.602;11.904;2022-08-03T00:31:42;6.20;;;2.60;;
66089;SDS011;53113;45.602;11.904;2022-08-03T00:34:08;4.30;;;2.30;;
66089;SDS011;53113;45.602;11.904;2022-08-03T00:36:34;4.00;;;2.20;;
66089;SDS011;53113;45.602;11.904;2022-08-03T00:38:59;5.20;;;2.20;;
66089;SDS011;53113;45.602;11.904;2022-08-03T00:41:25;5.20;;;2.40;;
66089;SDS011;53113;45.602;11.904;2022-08-03T00:43:51;4.70;;;2.40;;
66089;SDS011;53113;45.602;11.904;2022-08-03T00:46:17;5.60;;;2.50;;
66089;SDS011;53113;45.602;11.904;2022-08-03T00:48:43;4.20;;;2.40;;
66089;SDS011;53113;45.602;11.904;2022-08-03T00:51:08;5.10;;;2.30;;
66089;SDS011;53113;45.602;11.904;2022-08-03T00:53:34;5.00;;;2.30;;
66089;SDS011;53113;45.602;11.904;2022-08-03T00:56:02;4.70;;;2.30;;
66089;SDS011;53113;45.602;11.904;2022-08-03T00:58:28;4.70;;;2.10;;
66089;SDS011;53113;45.602;11.904;2022-08-03T01:00:54;5.20;;;2.50;;
66089;SDS011;53113;45.602;11.904;2022-08-03T01:03:22;5.30;;;2.30;;
66089;SDS011;53113;45.602;11.904;2022-08-03T01:16:32;4.90;;;2.50;;
66089;SDS011;53113;45.602;11.904;2022-08-03T01:25:10;5.60;;;2.40;;
66089;SDS011;53113;45.602;11.904;2022-08-03T01:31:12;5.90;;;2.30;;
66089;SDS011;53113;45.602;11.904;2022-08-03T01:33:49;5.30;;;2.80;;
66089;SDS011;53113;45.602;11.904;2022-08-03T01:36:21;5.20;;;2.70;;
66089;SDS011;53113;45.602;11.904;2022-08-03T01:38:53;5.90;;;2.50;;
66089;SDS011;53113;45.602;11.904;2022-08-03T01:41:29;5.70;;;2.50;;
66089;SDS011;53113;45.602;11.904;2022-08-03T01:44:01;5.10;;;2.40;;
66089;SDS011;53113;45.602;11.904;2022-08-03T01:46:31;4.50;;;2.40;;
66089;SDS011;53113;45.602;11.904;2022-08-03T01:48:59;5.60;;;2.60;;
66089;SDS011;53113;45.602;11.904;2022-08-03T01:51:26;3.90;;;2.30;;
66089;SDS011;53113;45.602;11.904;2022-08-03T01:53:55;4.90;;;2.50;;
66089;SDS011;53113;45.602;11.904;2022-08-03T01:56:23;5.50;;;2.80;;
66089;SDS011;53113;45.602;11.904;2022-08-03T02:01:17;3.80;;;2.10;;
66089;SDS011;53113;45.602;11.904;2022-08-03T02:03:45;4.90;;;2.30;;
66089;SDS011;53113;45.602;11.904;2022-08-03T02:06:14;4.80;;;2.30;;
66089;SDS011;53113;45.602;11.904;2022-08-03T02:08:44;4.80;;;2.30;;
66089;SDS011;53113;45.602;11.904;2022-08-03T02:11:12;5.80;;;2.30;;
66089;SDS011;53113;45.602;11.904;2022-08-03T02:13:39;4.40;;;2.30;;
66089;SDS011;53113;45.602;11.904;2022-08-03T02:16:05;4.90;;;2.30;;
66089;SDS011;53113;45.602;11.904;2022-08-03T02:18:32;4.60;;;2.30;;
66089;SDS011;53113;45.602;11.904;2022-08-03T02:21:02;5.40;;;2.40;;
66089;SDS011;53113;45.602;11.904;2022-08-03T02:23:30;5.10;;;2.30;;
66089;SDS011;53113;45.602;11.904;2022-08-03T02:25:56;4.90;;;2.50;;
66089;SDS011;53113;45.602;11.904;2022-08-03T02:28:26;6.70;;;2.90;;
66089;SDS011;53113;45.602;11.904;2022-08-03T02:30:59;4.50;;;2.50;;
66089;SDS011;53113;45.602;11.904;2022-08-03T02:33:37;5.20;;;2.50;;
66089;SDS011;53113;45.602;11.904;2022-08-03T02:36:07;4.80;;;2.70;;
66089;SDS011;53113;45.602;11.904;2022-08-03T02:38:37;7.10;;;2.70;;
66089;SDS011;53113;45.602;11.904;2022-08-03T02:41:07;5.20;;;2.30;;
66089;SDS011;53113;45.602;11.904;2022-08-03T02:43:44;6.10;;;2.60;;
66089;SDS011;53113;45.602;11.904;2022-08-03T02:46:13;5.80;;;2.60;;
66089;SDS011;53113;45.602;11.904;2022-08-03T02:48:44;5.60;;;2.60;;
66089;SDS011;53113;45.602;11.904;2022-08-03T02:51:12;5.10;;;2.60;;
66089;SDS011;53113;45.602;11.904;2022-08-03T02:53:41;4.70;;;2.40;;
66089;SDS011;53113;45.602;11.904;2022-08-03T02:56:09;4.60;;;2.30;;
66089;SDS011;53113;45.602;11.904;2022-08-03T02:58:36;5.30;;;2.50;;
66089;SDS011;53113;45.602;11.904;2022-08-03T03:01:03;5.90;;;2.40;;
66089;SDS011;53113;45.602;11.904;2022-08-03T03:03:30;6.00;;;2.60;;
66089;SDS011;53113;45.602;11.904;2022-08-03T03:05:57;4.20;;;2.60;;
66089;SDS011;53113;45.602;11.904;2022-08-03T03:08:24;6.30;;;3.00;;
66089;SDS011;53113;45.602;11.904;2022-08-03T03:10:51;5.30;;;2.80;;
66089;SDS011;53113;45.602;11.904;2022-08-03T03:13:19;5.40;;;2.70;;
66089;SDS011;53113;45.602;11.904;2022-08-03T03:15:46;4.40;;;2.70;;
66089;SDS011;53113;45.602;11.904;2022-08-03T03:18:14;6.00;;;3.10;;
66089;SDS011;53113;45.602;11.904;2022-08-03T03:20:41;6.30;;;3.00;;
66089;SDS011;53113;45.602;11.904;2022-08-03T03:23:09;6.00;;;3.00;;
66089;SDS011;53113;45.602;11.904;2022-08-03T03:25:35;5.60;;;2.70;;
66089;SDS011;53113;45.602;11.904;2022-08-03T03:28:03;5.70;;;2.80;;
66089;SDS011;53113;45.602;11.904;2022-08-03T03:30:30;5.80;;;2.90;;
66089;SDS011;53113;45.602;11.904;2022-08-03T03:32:57;8.50;;;2.60;;
66089;SDS011;53113;45.602;11.904;2022-08-03T03:35:23;5.80;;;2.80;;
66089;SDS011;53113;45.602;11.904;2022-08-03T03:37:49;6.80;;;2.90;;
66089;SDS011;53113;45.602;11.904;2022-08-03T03:40:16;6.50;;;2.90;;
66089;SDS011;53113;45.602;11.904;2022-08-03T03:42:42;4.50;;;2.40;;
66089;SDS011;53113;45.602;11.904;2022-08-03T03:45:07;6.10;;;3.00;;
66089;SDS011;53113;45.602;11.904;2022-08-03T03:47:35;6.60;;;3.30;;
66089;SDS011;53113;45.602;11.904;2022-08-03T03:50:05;6.70;;;3.00;;
66089;SDS011;53113;45.602;11.904;2022-08-03T03:52:31;5.30;;;2.70;;
66089;SDS011;53113;45.602;11.904;2022-08-03T03:54:58;6.40;;;2.90;;
66089;SDS011;53113;45.602;11.904;2022-08-03T03:57:24;7.90;;;2.90;;
66089;SDS011;53113;45.602;11.904;2022-08-03T03:59:50;6.80;;;3.10;;
66089;SDS011;53113;45.602;11.904;2022-08-03T04:02:15;6.90;;;2.80;;
66089;SDS011;53113;45.602;11.904;2022-08-03T04:04:41;5.80;;;2.90;;
66089;SDS011;53113;45.602;11.904;2022-08-03T04:07:25;7.30;;;2.90;;
66089;SDS011;53113;45.602;11.904;2022-08-03T04:10:28;5.90;;;3.20;;
66089;SDS011;53113;45.602;11.904;2022-08-03T04:13:16;5.70;;;3.00;;
66089;SDS011;53113;45.602;11.904;2022-08-03T04:15:45;6.30;;;3.10;;
66089;SDS011;53113;45.602;11.904;2022-08-03T04:18:13;6.50;;;2.70;;
66089;SDS011;53113;45.602;11.904;2022-08-03T04:20:42;6.80;;;2.90;;
66089;SDS011;53113;45.602;11.904;2022-08-03T04:23:11;7.60;;;3.10;;
66089;SDS011;53113;45.602;11.904;2022-08-03T04:25:38;9.90;;;3.80;;
66089;SDS011;53113;45.602;11.904;2022-08-03T04:28:07;7.70;;;3.20;;
66089;SDS011;53113;45.602;11.904;2022-08-03T04:30:34;8.50;;;3.30;;
66089;SDS011;53113;45.602;11.904;2022-08-03T04:33:03;13.70;;;4.10;;
66089;SDS011;53113;45.602;11.904;2022-08-03T04:35:30;10.10;;;3.20;;
66089;SDS011;53113;45.602;11.904;2022-08-03T04:37:59;7.40;;;3.10;;
66089;SDS011;53113;45.602;11.904;2022-08-03T04:40:34;8.20;;;3.00;;
66089;SDS011;53113;45.602;11.904;2022-08-03T04:43:02;6.50;;;2.40;;
66089;SDS011;53113;45.602;11.904;2022-08-03T04:45:30;7.00;;;2.70;;
66089;SDS011;53113;45.602;11.904;2022-08-03T04:47:58;5.90;;;2.70;;
66089;SDS011;53113;45.602;11.904;2022-08-03T04:50:23;5.00;;;2.40;;
66089;SDS011;53113;45.602;11.904;2022-08-03T04:52:52;9.40;;;3.80;;
66089;SDS011;53113;45.602;11.904;2022-08-03T04:55:29;9.50;;;3.30;;
66089;SDS011;53113;45.602;11.904;2022-08-03T04:57:56;6.30;;;2.80;;
66089;SDS011;53113;45.602;11.904;2022-08-03T05:00:23;6.10;;;2.70;;
66089;SDS011;53113;45.602;11.904;2022-08-03T05:02:49;5.10;;;2.60;;
66089;SDS011;53113;45.602;11.904;2022-08-03T05:05:15;4.90;;;2.50;;
66089;SDS011;53113;45.602;11.904;2022-08-03T05:07:41;5.30;;;3.40;;
66089;SDS011;53113;45.602;11.904;2022-08-03T05:10:09;6.40;;;2.50;;
66089;SDS011;53113;45.602;11.904;2022-08-03T05:12:36;5.00;;;2.40;;
66089;SDS011;53113;45.602;11.904;2022-08-03T05:15:02;5.70;;;2.50;;
66089;SDS011;53113;45.602;11.904;2022-08-03T05:17:29;11.50;;;3.10;;
66089;SDS011;53113;45.602;11.904;2022-08-03T05:19:55;14.50;;;4.40;;
66089;SDS011;53113;45.602;11.904;2022-08-03T05:22:21;8.70;;;3.00;;
66089;SDS011;53113;45.602;11.904;2022-08-03T05:24:47;5.80;;;2.70;;
66089;SDS011;53113;45.602;11.904;2022-08-03T05:27:13;8.00;;;2.90;;
66089;SDS011;53113;45.602;11.904;2022-08-03T05:29:49;5.00;;;2.70;;
66089;SDS011;53113;45.602;11.904;2022-08-03T05:32:15;5.10;;;2.40;;
66089;SDS011;53113;45.602;11.904;2022-08-03T05:34:42;7.20;;;3.20;;
66089;SDS011;53113;45.602;11.904;2022-08-03T05:37:08;15.00;;;4.70;;
66089;SDS011;53113;45.602;11.904;2022-08-03T05:39:34;8.50;;;2.90;;
66089;SDS011;53113;45.602;11.904;2022-08-03T05:42:01;5.90;;;2.60;;
66089;SDS011;53113;45.602;11.904;2022-08-03T05:44:27;5.40;;;2.60;;
66089;SDS011;53113;45.602;11.904;2022-08-03T05:46:52;6.30;;;2.80;;
66089;SDS011;53113;45.602;11.904;2022-08-03T05:49:19;7.70;;;3.10;;
66089;SDS011;53113;45.602;11.904;2022-08-03T05:51:45;6.40;;;2.80;;
66089;SDS011;53113;45.602;11.904;2022-08-03T05:54:11;6.70;;;2.80;;
66089;SDS011;53113;45.602;11.904;2022-08-03T05:56:37;6.50;;;3.00;;
66089;SDS011;53113;45.602;11.904;2022-08-03T05:59:05;7.00;;;3.20;;
66089;SDS011;53113;45.602;11.904;2022-08-03T06:01:31;6.70;;;2.80;;
66089;SDS011;53113;45.602;11.904;2022-08-03T06:03:57;7.60;;;3.00;;
66089;SDS011;53113;45.602;11.904;2022-08-03T06:06:22;9.90;;;3.80;;
66089;SDS011;53113;45.602;11.904;2022-08-03T06:08:48;9.10;;;3.40;;
66089;SDS011;53113;45.602;11.904;2022-08-03T06:11:14;17.90;;;5.70;;
66089;SDS011;53113;45.602;11.904;2022-08-03T06:13:40;6.30;;;2.60;;
66089;SDS011;53113;45.602;11.904;2022-08-03T06:16:07;5.00;;;3.00;;
66089;SDS011;53113;45.602;11.904;2022-08-03T06:18:33;6.70;;;2.60;;
66089;SDS011;53113;45.602;11.904;2022-08-03T06:20:59;7.80;;;2.60;;
66089;SDS011;53113;45.602;11.904;2022-08-03T06:23:25;5.70;;;2.40;;
66089;SDS011;53113;45.602;11.904;2022-08-03T06:25:51;10.00;;;3.90;;
66089;SDS011;53113;45.602;11.904;2022-08-03T06:28:16;6.90;;;2.50;;
66089;SDS011;53113;45.602;11.904;2022-08-03T06:30:42;7.30;;;2.80;;
66089;SDS011;53113;45.602;11.904;2022-08-03T06:33:09;6.00;;;2.70;;
66089;SDS011;53113;45.602;11.904;2022-08-03T06:35:35;5.50;;;3.10;;
66089;SDS011;53113;45.602;11.904;2022-08-03T06:38:00;6.90;;;3.00;;
66089;SDS011;53113;45.602;11.904;2022-08-03T06:40:26;5.90;;;3.00;;
66089;SDS011;53113;45.602;11.904;2022-08-03T06:42:57;6.20;;;3.20;;
66089;SDS011;53113;45.602;11.904;2022-08-03T06:45:24;6.10;;;2.80;;
66089;SDS011;53113;45.602;11.904;2022-08-03T06:50:45;7.80;;;3.20;;
66089;SDS011;53113;45.602;11.904;2022-08-03T06:53:10;5.90;;;3.10;;
66089;SDS011;53113;45.602;11.904;2022-08-03T06:55:36;5.50;;;2.90;;
66089;SDS011;53113;45.602;11.904;2022-08-03T06:58:02;7.30;;;3.20;;
66089;SDS011;53113;45.602;11.904;2022-08-03T07:00:28;6.50;;;2.60;;
66089;SDS011;53113;45.602;11.904;2022-08-03T07:02:55;5.80;;;2.60;;
66089;SDS011;53113;45.602;11.904;2022-08-03T07:05:21;6.60;;;2.60;;
66089;SDS011;53113;45.602;11.904;2022-08-03T07:07:47;5.30;;;2.50;;
66089;SDS011;53113;45.602;11.904;2022-08-03T07:10:13;4.80;;;2.30;;
66089;SDS011;53113;45.602;11.904;2022-08-03T07:12:39;5.30;;;2.20;;
66089;SDS011;53113;45.602;11.904;2022-08-03T07:15:08;4.80;;;2.10;;
66089;SDS011;53113;45.602;11.904;2022-08-03T07:17:34;5.10;;;2.10;;
66089;SDS011;53113;45.602;11.904;2022-08-03T07:20:02;4.90;;;2.00;;
66089;SDS011;53113;45.602;11.904;2022-08-03T07:22:29;5.80;;;2.20;;
66089;SDS011;53113;45.602;11.904;2022-08-03T07:24:55;5.30;;;2.40;;
66089;SDS011;53113;45.602;11.904;2022-08-03T07:27:22;4.40;;;2.10;;
66089;SDS011;53113;45.602;11.904;2022-08-03T07:29:47;5.60;;;2.10;;
66089;SDS011;53113;45.602;11.904;2022-08-03T07:32:13;4.70;;;2.20;;
66089;SDS011;53113;45.602;11.904;2022-08-03T07:34:39;4.00;;;2.00;;
66089;SDS011;53113;45.602;11.904;2022-08-03T07:37:04;3.60;;;1.80;;
66089;SDS011;53113;45.602;11.904;2022-08-03T07:39:30;3.20;;;1.90;;
66089;SDS011;53113;45.602;11.904;2022-08-03T07:41:56;4.50;;;2.00;;
66089;SDS011;53113;45.602;11.904;2022-08-03T07:44:22;4.10;;;1.70;;
66089;SDS011;53113;45.602;11.904;2022-08-03T07:46:47;5.10;;;2.00;;
66089;SDS011;53113;45.602;11.904;2022-08-03T07:49:14;5.60;;;2.10;;
66089;SDS011;53113;45.602;11.904;2022-08-03T07:51:40;5.40;;;2.00;;
66089;SDS011;53113;45.602;11.904;2022-08-03T07:54:06;3.70;;;2.00;;
66089;SDS011;53113;45.602;11.904;2022-08-03T07:56:35;6.20;;;1.80;;
66089;SDS011;53113;45.602;11.904;2022-08-03T07:59:01;4.10;;;2.10;;
66089;SDS011;53113;45.602;11.904;2022-08-03T08:01:27;3.70;;;1.90;;
66089;SDS011;53113;45.602;11.904;2022-08-03T08:03:53;3.00;;;1.80;;
66089;SDS011;53113;45.602;11.904;2022-08-03T08:06:19;6.10;;;2.00;;
66089;SDS011;53113;45.602;11.904;2022-08-03T08:08:45;3.70;;;1.80;;
66089;SDS011;53113;45.602;11.904;2022-08-03T08:11:12;4.00;;;1.80;;
66089;SDS011;53113;45.602;11.904;2022-08-03T08:13:37;4.40;;;1.90;;
66089;SDS011;53113;45.602;11.904;2022-08-03T08:16:04;3.70;;;1.90;;
66089;SDS011;53113;45.602;11.904;2022-08-03T08:18:30;3.80;;;2.50;;
66089;SDS011;53113;45.602;11.904;2022-08-03T08:20:56;4.70;;;1.80;;
66089;SDS011;53113;45.602;11.904;2022-08-03T08:23:22;4.00;;;1.80;;
66089;SDS011;53113;45.602;11.904;2022-08-03T08:25:49;6.40;;;1.90;;
66089;SDS011;53113;45.602;11.904;2022-08-03T08:28:16;3.20;;;1.60;;
66089;SDS011;53113;45.602;11.904;2022-08-03T08:30:43;3.20;;;1.90;;
66089;SDS011;53113;45.602;11.904;2022-08-03T08:33:09;4.00;;;2.00;;
66089;SDS011;53113;45.602;11.904;2022-08-03T08:35:35;3.90;;;1.70;;
66089;SDS011;53113;45.602;11.904;2022-08-03T08:38:01;5.20;;;1.80;;
66089;SDS011;53113;45.602;11.904;2022-08-03T08:40:26;2.60;;;1.70;;
66089;SDS011;53113;45.602;11.904;2022-08-03T08:42:53;4.40;;;1.70;;
66089;SDS011;53113;45.602;11.904;2022-08-03T08:45:18;5.80;;;2.00;;
66089;SDS011;53113;45.602;11.904;2022-08-03T08:47:45;3.10;;;1.80;;
66089;SDS011;53113;45.602;11.904;2022-08-03T08:50:13;3.30;;;1.80;;
66089;SDS011;53113;45.602;11.904;2022-08-03T08:52:43;3.50;;;1.60;;
66089;SDS011;53113;45.602;11.904;2022-08-03T08:55:13;3.40;;;1.70;;
66089;SDS011;53113;45.602;11.904;2022-08-03T08:57:48;2.70;;;1.80;;
66089;SDS011;53113;45.602;11.904;2022-08-03T09:00:16;5.70;;;1.90;;
66089;SDS011;53113;45.602;11.904;2022-08-03T09:02:43;4.30;;;1.90;;
66089;SDS011;53113;45.602;11.904;2022-08-03T09:05:11;3.60;;;1.90;;
66089;SDS011;53113;45.602;11.904;2022-08-03T09:07:39;3.80;;;1.90;;
66089;SDS011;53113;45.602;11.904;2022-08-03T09:10:06;3.10;;;1.70;;
66089;SDS011;53113;45.602;11.904;2022-08-03T09:12:36;5.40;;;1.90;;
66089;SDS011;53113;45.602;11.904;2022-08-03T09:17:44;4.80;;;1.90;;
66089;SDS011;53113;45.602;11.904;2022-08-03T09:20:10;3.60;;;1.90;;
66089;SDS011;53113;45.602;11.904;2022-08-03T09:22:47;3.20;;;1.70;;
66089;SDS011;53113;45.602;11.904;2022-08-03T09:25:15;4.50;;;1.80;;
66089;SDS011;53113;45.602;11.904;2022-08-03T09:27:42;4.60;;;1.80;;
66089;SDS011;53113;45.602;11.904;2022-08-03T09:30:13;4.20;;;1.90;;
66089;SDS011;53113;45.602;11.904;2022-08-03T09:32:40;3.60;;;2.00;;
66089;SDS011;53113;45.602;11.904;2022-08-03T09:35:06;3.00;;;1.80;;
66089;SDS011;53113;45.602;11.904;2022-08-03T09:37:33;3.30;;;1.70;;
66089;SDS011;53113;45.602;11.904;2022-08-03T09:39:58;2.80;;;1.70;;
66089;SDS011;53113;45.602;11.904;2022-08-03T09:42:24;3.20;;;1.80;;
66089;SDS011;53113;45.602;11.904;2022-08-03T09:44:51;3.10;;;1.60;;
66089;SDS011;53113;45.602;11.904;2022-08-03T09:50:00;2.50;;;1.60;;
66089;SDS011;53113;45.602;11.904;2022-08-03T09:52:32;4.20;;;1.90;;
66089;SDS011;53113;45.602;11.904;2022-08-03T09:55:06;3.40;;;1.70;;
66089;SDS011;53113;45.602;11.904;2022-08-03T09:57:33;4.40;;;1.60;;
66089;SDS011;53113;45.602;11.904;2022-08-03T10:00:09;3.80;;;1.60;;
66089;SDS011;53113;45.602;11.904;2022-08-03T10:02:37;2.60;;;1.60;;
66089;SDS011;53113;45.602;11.904;2022-08-03T10:05:08;3.50;;;1.70;;
66089;SDS011;53113;45.602;11.904;2022-08-03T10:10:09;4.30;;;1.80;;
66089;SDS011;53113;45.602;11.904;2022-08-03T10:12:35;5.20;;;1.80;;
66089;SDS011;53113;45.602;11.904;2022-08-03T10:15:02;3.90;;;1.90;;
66089;SDS011;53113;45.602;11.904;2022-08-03T10:17:29;4.00;;;1.80;;
66089;SDS011;53113;45.602;11.904;2022-08-03T10:19:54;3.60;;;1.80;;
66089;SDS011;53113;45.602;11.904;2022-08-03T10:22:23;3.70;;;1.80;;
66089;SDS011;53113;45.602;11.904;2022-08-03T10:24:52;3.20;;;1.80;;
66089;SDS011;53113;45.602;11.904;2022-08-03T10:27:23;4.20;;;1.70;;
66089;SDS011;53113;45.602;11.904;2022-08-03T10:29:52;4.50;;;1.80;;
66089;SDS011;53113;45.602;11.904;2022-08-03T10:32:42;2.30;;;1.40;;
66089;SDS011;53113;45.602;11.904;2022-08-03T10:35:13;3.50;;;1.60;;
66089;SDS011;53113;45.602;11.904;2022-08-03T10:37:44;3.20;;;1.60;;
66089;SDS011;53113;45.602;11.904;2022-08-03T10:40:14;4.70;;;1.60;;
66089;SDS011;53113;45.602;11.904;2022-08-03T10:42:44;3.30;;;1.60;;
66089;SDS011;53113;45.602;11.904;2022-08-03T10:45:17;4.10;;;1.90;;
66089;SDS011;53113;45.602;11.904;2022-08-03T10:47:46;3.20;;;1.70;;
66089;SDS011;53113;45.602;11.904;2022-08-03T10:50:14;4.30;;;1.70;;
66089;SDS011;53113;45.602;11.904;2022-08-03T10:52:53;3.80;;;1.60;;
66089;SDS011;53113;45.602;11.904;2022-08-03T11:03:33;5.20;;;1.70;;
66089;SDS011;53113;45.602;11.904;2022-08-03T11:06:22;5.20;;;1.80;;
66089;SDS011;53113;45.602;11.904;2022-08-03T11:11:34;2.30;;;1.40;;
66089;SDS011;53113;45.602;11.904;2022-08-03T11:17:11;3.10;;;1.60;;
66089;SDS011;53113;45.602;11.904;2022-08-03T11:19:43;4.50;;;1.70;;
66089;SDS011;53113;45.602;11.904;2022-08-03T11:22:13;2.60;;;1.60;;
66089;SDS011;53113;45.602;11.904;2022-08-03T11:30:41;3.30;;;1.70;;
66089;SDS011;53113;45.602;11.904;2022-08-03T11:32:51;2.60;;;1.70;;
66089;SDS011;53113;45.602;11.904;2022-08-03T11:35:30;3.40;;;1.50;;
66089;SDS011;53113;45.602;11.904;2022-08-03T11:42:57;2.60;;;1.70;;
66089;SDS011;53113;45.602;11.904;2022-08-03T11:45:23;3.50;;;1.70;;
66089;SDS011;53113;45.602;11.904;2022-08-03T11:47:50;3.20;;;1.60;;
66089;SDS011;53113;45.602;11.904;2022-08-03T11:50:18;5.10;;;1.80;;
66089;SDS011;53113;45.602;11.904;2022-08-03T11:52:45;2.60;;;1.60;;
66089;SDS011;53113;45.602;11.904;2022-08-03T11:55:12;3.30;;;1.70;;
66089;SDS011;53113;45.602;11.904;2022-08-03T11:57:39;4.00;;;1.80;;
66089;SDS011;53113;45.602;11.904;2022-08-03T12:02:56;3.80;;;1.40;;
66089;SDS011;53113;45.602;11.904;2022-08-03T12:05:33;4.40;;;2.00;;
66089;SDS011;53113;45.602;11.904;2022-08-03T12:08:00;3.10;;;1.70;;
66089;SDS011;53113;45.602;11.904;2022-08-03T12:10:26;5.30;;;1.80;;
66089;SDS011;53113;45.602;11.904;2022-08-03T12:12:55;3.00;;;1.60;;
66089;SDS011;53113;45.602;11.904;2022-08-03T12:15:25;3.10;;;1.50;;
66089;SDS011;53113;45.602;11.904;2022-08-03T12:17:52;2.50;;;1.50;;
66089;SDS011;53113;45.602;11.904;2022-08-03T12:22:50;3.80;;;1.50;;
66089;SDS011;53113;45.602;11.904;2022-08-03T12:25:34;3.10;;;1.50;;
66089;SDS011;53113;45.602;11.904;2022-08-03T12:28:08;5.30;;;1.80;;
66089;SDS011;53113;45.602;11.904;2022-08-03T12:35:46;2.50;;;1.30;;
66089;SDS011;53113;45.602;11.904;2022-08-03T12:38:17;2.90;;;1.60;;
66089;SDS011;53113;45.602;11.904;2022-08-03T12:40:57;3.80;;;1.50;;
66089;SDS011;53113;45.602;11.904;2022-08-03T12:43:24;3.30;;;1.50;;
66089;SDS011;53113;45.602;11.904;2022-08-03T12:45:50;3.10;;;1.50;;
66089;SDS011;53113;45.602;11.904;2022-08-03T12:48:16;2.60;;;1.40;;
66089;SDS011;53113;45.602;11.904;2022-08-03T12:50:41;4.20;;;1.40;;
66089;SDS011;53113;45.602;11.904;2022-08-03T12:53:08;3.00;;;1.30;;
66089;SDS011;53113;45.602;11.904;2022-08-03T12:55:35;3.90;;;1.60;;
66089;SDS011;53113;45.602;11.904;2022-08-03T12:58:05;3.50;;;1.30;;
66089;SDS011;53113;45.602;11.904;2022-08-03T13:00:35;3.70;;;1.40;;
66089;SDS011;53113;45.602;11.904;2022-08-03T13:03:02;3.20;;;1.50;;
66089;SDS011;53113;45.602;11.904;2022-08-03T13:05:31;2.90;;;1.30;;
66089;SDS011;53113;45.602;11.904;2022-08-03T13:07:57;2.80;;;1.30;;
66089;SDS011;53113;45.602;11.904;2022-08-03T13:10:27;3.60;;;1.30;;
66089;SDS011;53113;45.602;11.904;2022-08-03T13:12:57;3.70;;;1.20;;
66089;SDS011;53113;45.602;11.904;2022-08-03T13:15:25;2.30;;;1.20;;
66089;SDS011;53113;45.602;11.904;2022-08-03T13:17:53;1.50;;;1.20;;
66089;SDS011;53113;45.602;11.904;2022-08-03T13:20:22;2.30;;;1.30;;
66089;SDS011;53113;45.602;11.904;2022-08-03T13:22:49;2.30;;;1.20;;
66089;SDS011;53113;45.602;11.904;2022-08-03T13:25:17;3.00;;;1.30;;
66089;SDS011;53113;45.602;11.904;2022-08-03T13:27:44;2.10;;;1.30;;
66089;SDS011;53113;45.602;11.904;2022-08-03T13:30:11;1.80;;;1.30;;
66089;SDS011;53113;45.602;11.904;2022-08-03T13:32:37;3.20;;;1.20;;
66089;SDS011;53113;45.602;11.904;2022-08-03T13:35:03;4.20;;;1.30;;
66089;SDS011;53113;45.602;11.904;2022-08-03T13:37:30;2.30;;;1.20;;
66089;SDS011;53113;45.602;11.904;2022-08-03T13:39:59;3.70;;;1.40;;
66089;SDS011;53113;45.602;11.904;2022-08-03T13:42:26;3.40;;;1.50;;
66089;SDS011;53113;45.602;11.904;2022-08-03T13:44:53;1.90;;;1.20;;
66089;SDS011;53113;45.602;11.904;2022-08-03T13:47:19;1.90;;;1.10;;
66089;SDS011;53113;45.602;11.904;2022-08-03T13:49:45;1.90;;;1.20;;
66089;SDS011;53113;45.602;11.904;2022-08-03T13:52:11;1.70;;;1.10;;
66089;SDS011;53113;45.602;11.904;2022-08-03T13:54:37;2.20;;;1.20;;
66089;SDS011;53113;45.602;11.904;2022-08-03T13:57:02;3.50;;;1.50;;
66089;SDS011;53113;45.602;11.904;2022-08-03T13:59:28;2.30;;;1.30;;
66089;SDS011;53113;45.602;11.904;2022-08-03T14:01:54;2.10;;;1.30;;
66089;SDS011;53113;45.602;11.904;2022-08-03T14:04:20;3.00;;;1.40;;
66089;SDS011;53113;45.602;11.904;2022-08-03T14:06:46;2.20;;;1.40;;
66089;SDS011;53113;45.602;11.904;2022-08-03T14:09:12;3.10;;;1.40;;
66089;SDS011;53113;45.602;11.904;2022-08-03T14:14:05;2.70;;;1.40;;
66089;SDS011;53113;45.602;11.904;2022-08-03T14:16:31;5.10;;;1.80;;
66089;SDS011;53113;45.602;11.904;2022-08-03T14:18:56;3.40;;;1.50;;
66089;SDS011;53113;45.602;11.904;2022-08-03T14:21:22;3.50;;;1.70;;
66089;SDS011;53113;45.602;11.904;2022-08-03T14:23:48;3.40;;;1.60;;
66089;SDS011;53113;45.602;11.904;2022-08-03T14:26:14;3.50;;;1.90;;
66089;SDS011;53113;45.602;11.904;2022-08-03T14:28:42;6.30;;;2.10;;
66089;SDS011;53113;45.602;11.904;2022-08-03T14:31:08;4.20;;;2.10;;
66089;SDS011;53113;45.602;11.904;2022-08-03T14:33:34;5.00;;;2.00;;
66089;SDS011;53113;45.602;11.904;2022-08-03T14:36:00;6.20;;;1.90;;
66089;SDS011;53113;45.602;11.904;2022-08-03T14:38:26;3.80;;;1.90;;
66089;SDS011;53113;45.602;11.904;2022-08-03T14:40:52;4.10;;;1.90;;
66089;SDS011;53113;45.602;11.904;2022-08-03T14:43:17;4.60;;;1.90;;
66089;SDS011;53113;45.602;11.904;2022-08-03T14:45:46;5.20;;;2.00;;
66089;SDS011;53113;45.602;11.904;2022-08-03T14:48:16;4.80;;;2.00;;
66089;SDS011;53113;45.602;11.904;2022-08-03T14:50:43;4.10;;;1.90;;
66089;SDS011;53113;45.602;11.904;2022-08-03T14:53:08;4.80;;;1.80;;
66089;SDS011;53113;45.602;11.904;2022-08-03T14:55:34;4.90;;;1.90;;
66089;SDS011;53113;45.602;11.904;2022-08-03T14:58:00;5.70;;;2.00;;
66089;SDS011;53113;45.602;11.904;2022-08-03T15:00:32;3.60;;;1.70;;
66089;SDS011;53113;45.602;11.904;2022-08-03T15:02:58;4.10;;;2.10;;
66089;SDS011;53113;45.602;11.904;2022-08-03T15:05:24;3.30;;;1.90;;
66089;SDS011;53113;45.602;11.904;2022-08-03T15:07:50;4.20;;;2.20;;
66089;SDS011;53113;45.602;11.904;2022-08-03T15:10:16;5.20;;;2.00;;
66089;SDS011;53113;45.602;11.904;2022-08-03T15:12:43;4.50;;;1.70;;
66089;SDS011;53113;45.602;11.904;2022-08-03T15:15:09;5.20;;;1.90;;
66089;SDS011;53113;45.602;11.904;2022-08-03T15:17:35;4.80;;;1.90;;
66089;SDS011;53113;45.602;11.904;2022-08-03T15:20:00;3.40;;;1.70;;
66089;SDS011;53113;45.602;11.904;2022-08-03T15:22:26;4.20;;;1.90;;
66089;SDS011;53113;45.602;11.904;2022-08-03T15:24:52;3.50;;;1.70;;
66089;SDS011;53113;45.602;11.904;2022-08-03T15:27:20;2.60;;;1.40;;
66089;SDS011;53113;45.602;11.904;2022-08-03T15:29:46;4.30;;;1.50;;
66089;SDS011;53113;45.602;11.904;2022-08-03T15:32:12;3.70;;;1.70;;
66089;SDS011;53113;45.602;11.904;2022-08-03T15:34:38;2.70;;;1.70;;
66089;SDS011;53113;45.602;11.904;2022-08-03T15:37:04;5.30;;;2.10;;
66089;SDS011;53113;45.602;11.904;2022-08-03T15:39:30;4.80;;;1.60;;
66089;SDS011;53113;45.602;11.904;2022-08-03T15:41:56;3.90;;;1.50;;
66089;SDS011;53113;45.602;11.904;2022-08-03T15:44:22;3.30;;;1.20;;
66089;SDS011;53113;45.602;11.904;2022-08-03T15:46:47;2.50;;;1.20;;